Time;durP1;ratioP1;P1;durP2;ratioP2;P2;SDS_P1;SDS_P2;PMS_P1;PMS_P2;Temp;Humidity;BMP_temperature;BMP_pressure;BME280_temperature;BME280_humidity;BME280_pressure;Samples;Min_cycle;Max_cycle;Signal;HPM_P1;HPM_P2
2022/10/03 00:00:13;;;;;;;5.72;2.25;;;13.70;66.50;;;;;;5043319;28;20037;-48
2022/10/03 00:03:18;;;;;;;4.75;3.20;;;13.70;66.50;;;;;;5044895;28;20056;-52
2022/10/03 00:05:50;;;;;;;7.15;4.25;;;13.70;67.50;;;;;;5020448;28;20549;-49
2022/10/03 00:08:46;;;;;;;7.50;3.15;;;13.70;67.00;;;;;;5035635;28;20080;-48
2022/10/03 00:11:31;;;;;;;6.45;3.53;;;13.70;67.80;;;;;;5043504;28;20573;-48
2022/10/03 00:14:28;;;;;;;7.93;3.08;;;13.70;67.50;;;;;;5040441;28;20048;-48
2022/10/03 00:17:27;;;;;;;8.60;3.20;;;13.60;67.40;;;;;;5026409;28;20072;-50
2022/10/03 00:20:17;;;;;;;11.05;4.00;;;13.60;67.60;;;;;;5031842;28;20124;-49
2022/10/03 00:23:23;;;;;;;7.07;3.35;;;13.60;67.50;;;;;;5031010;28;20402;-48
2022/10/03 00:26:29;;;;;;;7.32;3.28;;;13.60;68.30;;;;;;4942114;29;20150;-48
2022/10/03 00:29:25;;;;;;;6.07;2.85;;;13.60;67.10;;;;;;4902959;29;20047;-47
2022/10/03 00:32:31;;;;;;;9.45;4.25;;;13.60;67.80;;;;;;5008393;28;20058;-52
2022/10/03 00:35:38;;;;;;;8.75;3.83;;;13.60;68.00;;;;;;5041881;28;20052;-48
2022/10/03 00:38:20;;;;;;;9.43;3.17;;;13.60;67.80;;;;;;5027058;28;20480;-51
2022/10/03 00:40:47;;;;;;;;;;;13.60;67.00;;;;;;5028315;28;20041;-51
2022/10/03 00:43:39;;;;;;;4.57;2.72;;;13.60;67.10;;;;;;5031115;28;19928;-47
2022/10/03 00:46:32;;;;;;;4.90;2.83;;;13.60;66.30;;;;;;5041932;28;20047;-52
2022/10/03 00:49:26;;;;;;;7.95;3.28;;;13.50;66.20;;;;;;5042423;28;20110;-52
2022/10/03 00:52:28;;;;;;;8.43;3.50;;;13.50;65.90;;;;;;5051066;28;20044;-51
2022/10/03 00:55:03;;;;;;;8.25;3.13;;;13.40;65.80;;;;;;5040724;28;20547;-51
2022/10/03 00:58:10;;;;;;;10.27;3.33;;;13.40;65.50;;;;;;5031182;28;20072;-48
2022/10/03 01:00:48;;;;;;;7.75;3.17;;;13.30;65.60;;;;;;5029673;28;20045;-47
2022/10/03 01:03:41;;;;;;;6.10;2.97;;;13.30;66.00;;;;;;5032388;28;20682;-52
2022/10/03 01:06:26;;;;;;;5.93;2.90;;;13.20;65.40;;;;;;5031603;28;20041;-50
2022/10/03 01:09:14;;;;;;;7.93;3.20;;;13.20;65.40;;;;;;5042717;28;20048;-52
2022/10/03 01:11:56;;;;;;;6.78;3.33;;;13.10;65.10;;;;;;5050710;28;20037;-48
2022/10/03 01:14:48;;;;;;;6.63;3.72;;;13.10;65.20;;;;;;5041498;28;20048;-50
2022/10/03 01:17:48;;;;;;;6.22;3.50;;;13.10;65.30;;;;;;5031428;28;20048;-50
2022/10/03 01:20:38;;;;;;;4.00;3.30;;;13.00;65.30;;;;;;5030873;28;20414;-49
2022/10/03 01:23:14;;;;;;;6.40;3.80;;;13.00;65.20;;;;;;5032863;28;20038;-51
2022/10/03 01:25:52;;;;;;;3.85;2.85;;;12.90;65.10;;;;;;5031114;28;20128;-47
2022/10/03 01:31:28;;;;;;;7.88;3.42;;;12.90;65.30;;;;;;5031715;28;20045;-50
2022/10/03 01:34:15;;;;;;;7.32;3.03;;;12.80;65.10;;;;;;5033717;28;20064;-49
2022/10/03 01:36:51;;;;;;;5.40;3.40;;;12.80;65.30;;;;;;5010848;28;20038;-53
2022/10/03 01:39:30;;;;;;;5.85;3.08;;;12.80;65.20;;;;;;5022350;28;20553;-51
2022/10/03 01:42:18;;;;;;;3.63;3.03;;;12.70;65.20;;;;;;5034502;28;20052;-52
2022/10/03 01:44:54;;;;;;;;;;;12.70;65.20;;;;;;5016895;28;20041;-49
2022/10/03 01:47:37;;;;;;;7.25;4.05;;;12.70;65.30;;;;;;5010520;28;19976;-51
2022/10/03 01:50:37;;;;;;;8.85;3.55;;;12.70;66.30;;;;;;5010495;28;20412;-48
2022/10/03 01:53:07;;;;;;;11.82;4.93;;;12.60;66.40;;;;;;4979803;28;20133;-49
2022/10/03 01:56:08;;;;;;;6.70;4.53;;;12.70;66.50;;;;;;5012098;28;21184;-49
2022/10/03 01:58:56;;;;;;;9.50;3.90;;;12.60;68.10;;;;;;5011616;28;20045;-46
2022/10/03 02:01:46;;;;;;;6.45;4.15;;;12.60;68.40;;;;;;5025374;28;20095;-49
2022/10/03 02:05:06;;;;;;;8.35;3.60;;;12.60;67.80;;;;;;5026034;28;20538;-45
2022/10/03 02:07:59;;;;;;;6.28;3.85;;;12.70;69.10;;;;;;4983687;28;20045;-46
2022/10/03 02:10:49;;;;;;;6.32;3.55;;;12.70;68.50;;;;;;5012480;28;20805;-46
2022/10/03 02:13:47;;;;;;;5.03;3.20;;;12.70;68.00;;;;;;5009532;28;20045;-49
2022/10/03 02:16:32;;;;;;;8.63;4.00;;;12.70;68.90;;;;;;5017167;28;20042;-47
2022/10/03 02:19:12;;;;;;;11.85;4.55;;;12.70;69.40;;;;;;4993991;28;20038;-46
2022/10/03 02:21:55;;;;;;;8.43;3.78;;;12.80;68.90;;;;;;5012850;28;20056;-45
2022/10/03 02:24:50;;;;;;;9.40;4.57;;;12.80;69.70;;;;;;5009234;28;20104;-48
2022/10/03 02:27:40;;;;;;;7.00;3.97;;;12.80;70.30;;;;;;5010992;28;20058;-46
2022/10/03 02:30:23;;;;;;;5.10;3.25;;;12.80;70.00;;;;;;5023243;28;20049;-46
2022/10/03 02:33:35;;;;;;;7.22;3.85;;;12.80;70.10;;;;;;5030958;28;20034;-46
2022/10/03 02:36:22;;;;;;;9.20;3.65;;;12.90;70.20;;;;;;4988718;28;20417;-47
2022/10/03 02:39:16;;;;;;;7.03;3.30;;;12.90;69.60;;;;;;5013665;28;20064;-50
2022/10/03 02:41:43;;;;;;;8.48;3.72;;;12.90;69.80;;;;;;5017275;28;20047;-50
2022/10/03 02:44:29;;;;;;;6.60;3.45;;;12.90;69.10;;;;;;5030977;28;20045;-46
2022/10/03 02:47:25;;;;;;;9.25;3.50;;;13.00;69.60;;;;;;5014374;28;20120;-47
2022/10/03 02:50:35;;;;;;;7.05;3.20;;;13.10;69.90;;;;;;5013955;28;20041;-47
2022/10/03 02:53:41;;;;;;;7.05;3.88;;;13.00;69.30;;;;;;5010955;28;20109;-46
2022/10/03 02:56:36;;;;;;;10.93;3.97;;;13.10;68.80;;;;;;5007597;28;20038;-49
2022/10/03 02:59:18;;;;;;;9.73;3.33;;;13.10;68.40;;;;;;5015254;28;20042;-45
2022/10/03 03:01:56;;;;;;;9.45;4.53;;;13.00;67.80;;;;;;4990870;28;20050;-51
2022/10/03 03:05:01;;;;;;;7.57;3.28;;;13.00;69.10;;;;;;5005861;28;20053;-47
2022/10/03 03:07:37;;;;;;;9.40;4.28;;;13.00;68.40;;;;;;5027248;28;20060;-49
2022/10/03 03:10:50;;;;;;;5.38;3.10;;;13.00;68.00;;;;;;5027173;28;20120;-48
2022/10/03 03:13:47;;;;;;;8.85;3.28;;;12.90;68.40;;;;;;5025207;28;20041;-46
2022/10/03 03:16:35;;;;;;;3.38;2.80;;;12.90;68.70;;;;;;5003391;28;20046;-45
2022/10/03 03:19:20;;;;;;;6.72;3.30;;;12.90;67.80;;;;;;5010776;28;20522;-47
2022/10/03 03:22:34;;;;;;;7.03;3.75;;;12.80;67.70;;;;;;5011033;28;20058;-48
2022/10/03 03:25:16;;;;;;;6.32;3.80;;;12.80;68.00;;;;;;5013023;28;20046;-51
2022/10/03 03:28:04;;;;;;;6.47;2.90;;;12.70;68.30;;;;;;5012313;28;20056;-48
2022/10/03 03:30:57;;;;;;;5.63;3.17;;;12.70;67.50;;;;;;5010978;28;20038;-49
2022/10/03 03:33:42;;;;;;;6.15;3.40;;;12.70;67.30;;;;;;5013614;28;20045;-46
2022/10/03 03:36:21;;;;;;;5.07;3.28;;;12.60;67.90;;;;;;5015485;28;20049;-46
2022/10/03 03:38:48;;;;;;;5.68;3.40;;;12.60;67.20;;;;;;5030382;28;20046;-50
2022/10/03 03:41:39;;;;;;;9.93;4.00;;;12.50;67.20;;;;;;5028313;28;20049;-46
2022/10/03 03:44:36;;;;;;;8.85;3.97;;;12.50;67.90;;;;;;5008298;28;20117;-46
2022/10/03 03:47:24;;;;;;;6.25;3.67;;;12.50;68.20;;;;;;5021899;28;20033;-50
2022/10/03 03:50:37;;;;;;;8.73;3.30;;;12.50;67.70;;;;;;5025728;28;20722;-46
2022/10/03 03:53:50;;;;;;;9.73;4.82;;;12.40;68.20;;;;;;5012852;28;20048;-46
2022/10/03 03:56:27;;;;;;;;;;;12.40;69.10;;;;;;5016614;28;20140;-48
2022/10/03 03:59:13;;;;;;;7.97;4.38;;;12.40;68.70;;;;;;5010511;28;19953;-48
2022/10/03 04:01:55;;;;;;;7.00;4.53;;;12.40;68.00;;;;;;5009920;28;20462;-50
2022/10/03 04:04:43;;;;;;;6.88;3.95;;;12.40;69.50;;;;;;5017375;28;20050;-45
2022/10/03 04:07:48;;;;;;;7.15;4.15;;;12.40;69.40;;;;;;5024245;28;20112;-49
2022/10/03 04:10:43;;;;;;;6.70;3.88;;;12.40;69.30;;;;;;5016105;28;20068;-47
2022/10/03 04:13:33;;;;;;;7.18;4.10;;;12.40;68.60;;;;;;5021462;28;20030;-49
2022/10/03 04:19:39;;;;;;;5.57;3.90;;;12.40;69.20;;;;;;5014073;28;20038;-48
2022/10/03 04:22:22;;;;;;;13.18;4.97;;;12.40;69.40;;;;;;5018455;28;20045;-48
2022/10/03 04:24:58;;;;;;;8.38;4.70;;;12.50;70.20;;;;;;4993962;28;20050;-47
2022/10/03 04:27:52;;;;;;;8.30;4.18;;;12.50;70.00;;;;;;4980779;28;20042;-46
2022/10/03 04:30:45;;;;;;;5.78;3.78;;;12.60;70.10;;;;;;5017594;28;20042;-46
2022/10/03 04:33:34;;;;;;;4.45;3.83;;;12.60;69.70;;;;;;5024930;28;20116;-47
2022/10/03 04:36:28;;;;;;;8.05;4.43;;;12.70;69.50;;;;;;5031072;28;20502;-47
2022/10/03 04:38:56;;;;;;;5.57;3.88;;;12.70;69.90;;;;;;5005708;28;20125;-46
2022/10/03 04:41:27;;;;;;;6.75;3.92;;;12.70;69.40;;;;;;5025054;28;20052;-48
2022/10/03 04:44:04;;;;;;;9.40;4.60;;;12.80;69.50;;;;;;5032407;28;20052;-46
2022/10/03 04:46:47;;;;;;;8.88;4.47;;;12.80;70.20;;;;;;5000270;28;20041;-48
2022/10/03 04:49:51;;;;;;;9.07;5.25;;;12.90;70.50;;;;;;5020504;28;20038;-46
2022/10/03 04:52:21;;;;;;;7.95;4.68;;;12.90;71.00;;;;;;4989324;28;20061;-46
2022/10/03 04:55:09;;;;;;;8.95;5.45;;;12.90;70.30;;;;;;5032939;28;20054;-46
2022/10/03 04:57:57;;;;;;;10.38;4.80;;;13.00;70.70;;;;;;5009644;28;20530;-46
2022/10/03 05:00:46;;;;;;;8.23;4.38;;;13.00;70.70;;;;;;5022137;28;20451;-47
2022/10/03 05:03:28;;;;;;;10.10;5.32;;;13.10;70.60;;;;;;5014776;28;20129;-50
2022/10/03 05:05:56;;;;;;;8.23;4.82;;;13.20;70.90;;;;;;5015666;28;20029;-46
2022/10/03 05:08:47;;;;;;;8.75;4.68;;;13.20;70.40;;;;;;5024157;28;20050;-46
2022/10/03 05:11:44;;;;;;;7.50;4.65;;;13.30;71.20;;;;;;5032950;28;20045;-50
2022/10/03 05:14:41;;;;;;;10.55;5.47;;;13.30;71.10;;;;;;5020720;28;20505;-45
2022/10/03 05:17:13;;;;;;;7.65;5.28;;;13.30;70.90;;;;;;5015994;28;20041;-49
2022/10/03 05:20:02;;;;;;;6.80;5.07;;;13.40;70.20;;;;;;5005697;28;20060;-49
2022/10/03 05:22:41;;;;;;;11.02;5.75;;;13.40;70.30;;;;;;5010336;28;20137;-46
2022/10/03 05:25:40;;;;;;;10.63;5.50;;;13.40;70.60;;;;;;5005616;28;20041;-47
2022/10/03 05:28:15;;;;;;;10.77;5.15;;;13.40;70.80;;;;;;5017735;28;20128;-49
2022/10/03 05:30:57;;;;;;;10.48;5.60;;;13.40;70.40;;;;;;5019133;28;20041;-50
2022/10/03 05:33:45;;;;;;;8.82;5.32;;;13.40;70.30;;;;;;5032298;28;20049;-47
2022/10/03 05:36:25;;;;;;;9.77;5.97;;;13.40;70.40;;;;;;5018276;28;20057;-49
2022/10/03 05:39:19;;;;;;;9.23;5.60;;;13.40;70.60;;;;;;5024577;28;20121;-48
2022/10/03 05:42:14;;;;;;;10.65;6.13;;;13.40;70.40;;;;;;5009139;28;20045;-51
2022/10/03 05:45:22;;;;;;;11.30;5.63;;;13.40;70.40;;;;;;4997806;28;20536;-48
2022/10/03 05:48:23;;;;;;;13.90;6.00;;;13.40;70.80;;;;;;5018683;28;20091;-46
2022/10/03 05:51:19;;;;;;;9.55;5.68;;;13.40;70.70;;;;;;5020968;28;20044;-50
2022/10/03 05:54:04;;;;;;;10.65;5.90;;;13.40;70.60;;;;;;4994789;28;20113;-47
2022/10/03 05:56:55;;;;;;;12.30;6.47;;;13.40;70.20;;;;;;5008114;28;20117;-45
2022/10/03 05:59:37;;;;;;;7.65;5.45;;;13.40;70.70;;;;;;5021857;28;20113;-46
2022/10/03 06:02:39;;;;;;;13.07;5.88;;;13.40;70.70;;;;;;5025125;28;20045;-46
2022/10/03 06:05:14;;;;;;;9.77;6.45;;;13.40;71.10;;;;;;5006373;28;20114;-45
2022/10/03 06:08:05;;;;;;;10.95;6.65;;;13.40;70.50;;;;;;5012360;28;20041;-46
2022/10/03 06:10:40;;;;;;;10.55;6.35;;;13.40;70.80;;;;;;5030164;28;20047;-50
2022/10/03 06:13:43;;;;;;;10.90;6.93;;;13.50;71.00;;;;;;5022617;28;20042;-48
2022/10/03 06:16:16;;;;;;;;;;;13.50;71.30;;;;;;4982714;28;20057;-51
2022/10/03 06:19:02;;;;;;;9.95;6.00;;;13.60;71.90;;;;;;5010178;28;19925;-50
2022/10/03 06:21:40;;;;;;;11.30;5.60;;;13.60;71.00;;;;;;5005557;28;20049;-49
2022/10/03 06:24:35;;;;;;;12.63;6.40;;;13.60;70.30;;;;;;5016632;28;20069;-46
2022/10/03 06:27:26;;;;;;;9.68;6.85;;;13.60;70.80;;;;;;5021228;28;20096;-46
2022/10/03 06:30:37;;;;;;;9.10;6.00;;;13.70;70.90;;;;;;5017940;28;20060;-48
2022/10/03 06:33:53;;;;;;;8.65;6.25;;;13.70;71.50;;;;;;5009971;28;20048;-51
2022/10/03 06:36:41;;;;;;;11.07;6.18;;;13.70;71.70;;;;;;4990251;28;20042;-52
2022/10/03 06:39:26;;;;;;;14.45;7.82;;;13.80;71.10;;;;;;4992269;28;20042;-48
2022/10/03 06:42:11;;;;;;;10.50;7.20;;;13.80;70.80;;;;;;5016375;28;20129;-50
2022/10/03 06:45:08;;;;;;;11.00;7.32;;;13.80;70.40;;;;;;4992573;28;20051;-51
2022/10/03 06:48:08;;;;;;;10.90;7.50;;;13.80;70.80;;;;;;4989418;28;20068;-48
2022/10/03 06:50:52;;;;;;;16.15;7.78;;;13.80;70.90;;;;;;5016009;28;20041;-50
2022/10/03 06:54:04;;;;;;;12.27;7.50;;;13.80;71.00;;;;;;5013168;28;20234;-50
2022/10/03 06:56:59;;;;;;;12.35;7.28;;;13.80;71.20;;;;;;4903213;29;20062;-50
2022/10/03 06:59:40;;;;;;;14.10;7.85;;;13.90;71.20;;;;;;5003594;28;20133;-49
2022/10/03 07:02:32;;;;;;;16.08;7.40;;;13.90;71.50;;;;;;5003667;28;20100;-52
2022/10/03 07:05:36;;;;;;;12.35;7.00;;;13.90;72.10;;;;;;5000005;28;20077;-52
2022/10/03 07:08:14;;;;;;;14.65;7.35;;;14.00;72.20;;;;;;5008101;28;20034;-52
2022/10/03 07:10:52;;;;;;;13.38;7.55;;;14.10;71.40;;;;;;5008452;28;20046;-52
2022/10/03 07:13:41;;;;;;;15.18;8.45;;;14.10;71.30;;;;;;5008787;28;20041;-52
2022/10/03 07:16:42;;;;;;;13.38;6.78;;;14.10;71.70;;;;;;5003020;28;20042;-50
2022/10/03 07:19:31;;;;;;;14.32;7.40;;;14.10;71.40;;;;;;5009815;28;20053;-50
2022/10/03 07:22:35;;;;;;;11.63;7.68;;;14.20;71.10;;;;;;5013497;28;20038;-52
2022/10/03 07:25:32;;;;;;;9.40;6.55;;;14.10;71.10;;;;;;5006082;28;20410;-49
2022/10/03 07:28:21;;;;;;;12.63;7.13;;;14.10;71.00;;;;;;5010616;28;20487;-49
2022/10/03 07:31:05;;;;;;;13.23;8.43;;;14.10;71.30;;;;;;5014246;28;20038;-52
2022/10/03 07:33:40;;;;;;;15.65;7.85;;;14.10;71.30;;;;;;5010479;28;20042;-50
2022/10/03 07:39:39;;;;;;;12.52;8.23;;;14.10;71.20;;;;;;5018807;28;20116;-51
2022/10/03 07:42:24;;;;;;;14.60;9.05;;;14.10;71.70;;;;;;5012472;28;20398;-51
2022/10/03 07:44:54;;;;;;;17.50;8.48;;;14.20;72.10;;;;;;5009156;22;20098;-51
2022/10/03 07:47:49;;;;;;;14.85;9.32;;;14.20;71.90;;;;;;4989580;28;20049;-53
2022/10/03 07:50:45;;;;;;;14.38;8.30;;;14.30;72.90;;;;;;4994978;28;20121;-54
2022/10/03 07:53:42;;;;;;;19.48;8.75;;;14.40;72.90;;;;;;4986827;28;20034;-54
2022/10/03 07:56:26;;;;;;;13.32;8.00;;;14.50;72.80;;;;;;4969228;28;20073;-51
2022/10/03 07:59:22;;;;;;;15.80;8.13;;;14.50;71.70;;;;;;4970478;28;20030;-51
2022/10/03 08:01:53;;;;;;;13.38;8.18;;;14.60;71.60;;;;;;4954966;28;20142;-51
2022/10/03 08:04:29;;;;;;;14.13;8.32;;;14.70;71.60;;;;;;4972958;28;20074;-53
2022/10/03 08:07:21;;;;;;;10.45;7.72;;;14.70;71.50;;;;;;4972296;28;20043;-50
2022/10/03 08:10:00;;;;;;;14.00;8.55;;;14.70;71.50;;;;;;4968119;28;20047;-51
2022/10/03 08:13:09;;;;;;;14.48;8.48;;;14.70;71.10;;;;;;4975371;28;20053;-52
2022/10/03 08:15:48;;;;;;;12.00;7.38;;;14.70;71.60;;;;;;4972909;28;20039;-52
2022/10/03 08:18:29;;;;;;;11.93;8.18;;;14.70;71.30;;;;;;4973109;28;20035;-49
2022/10/03 08:20:59;;;;;;;10.35;8.07;;;14.70;71.60;;;;;;4970657;28;20047;-49
2022/10/03 08:23:38;;;;;;;13.50;9.07;;;14.70;71.60;;;;;;4974757;28;20530;-50
2022/10/03 08:26:41;;;;;;;14.88;8.82;;;14.70;72.20;;;;;;4975250;28;20042;-51
2022/10/03 08:29:22;;;;;;;11.20;7.57;;;14.80;72.60;;;;;;4975602;28;20047;-52
2022/10/03 08:32:11;;;;;;;13.80;9.07;;;14.70;72.80;;;;;;4968221;28;20035;-52
2022/10/03 08:35:09;;;;;;;16.17;8.85;;;14.80;72.00;;;;;;4971667;28;20126;-52
2022/10/03 08:38:11;;;;;;;10.68;7.20;;;14.80;72.80;;;;;;4967609;28;20049;-50
2022/10/03 08:40:39;;;;;;;12.90;7.82;;;14.80;72.60;;;;;;4975401;28;20419;-50
2022/10/03 08:43:27;;;;;;;11.88;7.75;;;14.80;71.90;;;;;;4968491;28;20039;-54
2022/10/03 08:46:07;;;;;;;11.07;7.30;;;14.90;72.80;;;;;;4969835;28;20526;-52
2022/10/03 08:48:50;;;;;;;11.65;7.75;;;14.90;72.20;;;;;;4975147;28;20102;-52
2022/10/03 08:51:43;;;;;;;14.77;7.95;;;15.00;73.40;;;;;;4969213;28;20058;-53
2022/10/03 08:54:26;;;;;;;14.32;8.15;;;15.00;73.20;;;;;;4971383;28;20035;-50
2022/10/03 08:57:11;;;;;;;13.23;8.48;;;15.00;72.50;;;;;;4974774;28;20043;-54
2022/10/03 09:00:13;;;;;;;11.98;7.18;;;15.10;72.80;;;;;;4969564;28;20047;-53
2022/10/03 09:02:52;;;;;;;12.57;8.30;;;15.10;72.90;;;;;;4973387;28;20058;-54
2022/10/03 09:05:59;;;;;;;13.35;7.85;;;15.10;72.40;;;;;;4955411;28;20691;-51
2022/10/03 09:09:01;;;;;;;18.88;8.13;;;15.20;72.50;;;;;;4957483;28;20053;-52
2022/10/03 09:12:11;;;;;;;10.00;7.32;;;15.20;73.00;;;;;;4971702;28;20047;-50
2022/10/03 09:15:01;;;;;;;10.27;6.10;;;15.30;72.50;;;;;;4966273;28;20046;-52
2022/10/03 09:17:59;;;;;;;10.57;6.93;;;15.30;72.50;;;;;;4971956;28;20146;-52
2022/10/03 09:20:50;;;;;;;8.18;5.82;;;15.40;72.70;;;;;;4972110;28;20049;-52
2022/10/03 09:23:23;;;;;;;10.05;6.32;;;15.40;72.30;;;;;;4972516;28;20043;-53
2022/10/03 09:26:13;;;;;;;10.35;6.07;;;15.40;72.00;;;;;;4974103;28;20049;-53
2022/10/03 09:29:19;;;;;;;8.20;5.47;;;15.50;72.00;;;;;;4972092;28;20109;-53
2022/10/03 09:32:22;;;;;;;10.63;5.38;;;15.60;72.20;;;;;;4969569;28;20073;-50
2022/10/03 09:35:14;;;;;;;9.90;5.07;;;15.60;72.00;;;;;;4954409;29;20083;-52
2022/10/03 09:38:23;;;;;;;8.00;5.00;;;15.70;71.80;;;;;;4961462;28;20454;-54
2022/10/03 09:41:27;;;;;;;6.75;4.75;;;15.80;71.60;;;;;;4945110;28;20068;-51
2022/10/03 09:44:08;;;;;;;9.20;5.45;;;15.80;71.60;;;;;;4954560;29;20047;-50
2022/10/03 09:47:21;;;;;;;11.57;5.17;;;15.90;72.10;;;;;;4968063;28;20046;-53
2022/10/03 09:50:10;;;;;;;8.30;4.78;;;15.90;71.30;;;;;;4967993;28;20070;-52
2022/10/03 09:53:10;;;;;;;9.27;4.43;;;16.00;71.50;;;;;;4973556;28;20165;-50
2022/10/03 09:56:00;;;;;;;8.27;4.85;;;16.10;71.30;;;;;;4970051;28;20042;-52
2022/10/03 09:59:12;;;;;;;6.15;4.65;;;16.20;71.40;;;;;;4973857;28;20046;-52
2022/10/03 10:01:45;;;;;;;10.60;5.18;;;16.30;72.00;;;;;;4953876;28;20102;-52
2022/10/03 10:04:34;;;;;;;7.57;4.55;;;16.40;71.10;;;;;;4954309;28;20051;-53
2022/10/03 10:07:23;;;;;;;6.82;4.28;;;16.50;71.00;;;;;;4968334;28;20098;-52
2022/10/03 10:09:59;;;;;;;9.32;3.95;;;16.70;70.70;;;;;;4973556;28;20042;-50
2022/10/03 10:13:00;;;;;;;5.85;4.25;;;16.80;70.50;;;;;;4973296;28;20055;-50
2022/10/03 10:16:08;;;;;;;6.15;2.17;;;17.00;70.60;;;;;;4967426;28;20046;-54
2022/10/03 10:18:39;;;;;;;6.13;2.20;;;17.10;68.80;;;;;;4957078;28;20051;-50
2022/10/03 10:21:24;;;;;;;9.10;2.10;;;17.30;68.70;;;;;;4967307;28;20046;-51
2022/10/03 10:23:59;;;;;;;9.18;2.72;;;17.40;67.40;;;;;;4971245;28;20042;-52
2022/10/03 10:26:44;;;;;;;4.50;2.00;;;17.50;67.80;;;;;;4969023;28;20049;-52
2022/10/03 10:29:20;;;;;;;6.60;2.47;;;17.60;66.90;;;;;;4973558;28;20427;-50
2022/10/03 10:32:12;;;;;;;3.42;1.65;;;17.70;66.30;;;;;;4966524;28;20046;-52
2022/10/03 10:35:23;;;;;;;4.15;2.10;;;17.70;64.90;;;;;;4965772;28;20046;-54
2022/10/03 10:38:14;;;;;;;7.40;1.90;;;17.80;65.10;;;;;;4953605;28;20086;-52
2022/10/03 10:41:15;;;;;;;4.90;1.92;;;17.80;64.70;;;;;;4956516;28;20050;-51
2022/10/03 10:43:51;;;;;;;3.53;1.80;;;17.90;63.90;;;;;;4953057;28;20044;-50
2022/10/03 10:46:42;;;;;;;6.85;2.13;;;18.00;64.20;;;;;;4964788;28;20043;-52
2022/10/03 10:49:48;;;;;;;6.40;1.75;;;18.10;64.00;;;;;;4973585;28;20046;-55
2022/10/03 10:52:33;;;;;;;4.70;1.90;;;18.10;63.90;;;;;;4977649;28;20302;-54
2022/10/03 10:55:44;;;;;;;7.95;1.90;;;18.10;64.00;;;;;;4970388;28;20118;-51
2022/10/03 10:59:05;;;;;;;4.72;1.73;;;18.20;64.00;;;;;;4906810;29;20044;-55
2022/10/03 11:02:20;;;;;;;4.13;1.77;;;18.30;62.50;;;;;;4893273;29;20052;-53
2022/10/03 11:05:06;;;;;;;2.22;1.20;;;18.50;62.00;;;;;;4970101;28;20122;-54
2022/10/03 11:08:22;;;;;;;3.80;0.90;;;18.60;62.50;;;;;;4966883;28;20055;-51
2022/10/03 11:11:06;;;;;;;4.38;1.85;;;18.70;62.00;;;;;;4956620;28;20058;-52
2022/10/03 11:13:44;;;;;;;3.70;1.20;;;18.90;60.70;;;;;;4964765;28;20031;-51
2022/10/03 11:16:33;;;;;;;1.55;1.15;;;18.90;60.80;;;;;;4968861;28;20038;-55
2022/10/03 11:19:40;;;;;;;4.97;1.20;;;19.00;59.80;;;;;;4977571;28;20063;-54
2022/10/03 11:22:22;;;;;;;6.30;2.08;;;19.10;59.60;;;;;;4964682;28;20653;-50
2022/10/03 11:25:22;;;;;;;3.38;1.40;;;19.10;59.30;;;;;;4970958;28;20499;-55
2022/10/03 11:28:20;;;;;;;9.05;3.15;;;19.20;60.20;;;;;;4960710;28;20047;-53
2022/10/03 11:31:01;;;;;;;4.78;1.70;;;19.10;59.30;;;;;;4961677;28;20063;-55
2022/10/03 11:33:46;;;;;;;6.80;2.17;;;19.20;60.00;;;;;;4971376;28;20115;-52
2022/10/03 11:36:35;;;;;;;2.53;1.08;;;19.20;58.10;;;;;;4965366;28;20105;-50
2022/10/03 11:39:06;;;;;;;4.05;1.30;;;19.30;58.00;;;;;;4970530;28;20070;-52
2022/10/03 11:42:03;;;;;;;1.98;1.52;;;19.30;58.60;;;;;;4968970;28;20035;-55
2022/10/03 11:44:31;;;;;;;1.83;1.00;;;19.40;57.70;;;;;;4970387;28;20055;-52
2022/10/03 11:47:36;;;;;;;4.00;1.10;;;19.50;58.00;;;;;;4968992;28;20047;-54
2022/10/03 11:50:22;;;;;;;4.82;1.98;;;19.60;57.70;;;;;;4936938;28;20135;-55
2022/10/03 11:53:13;;;;;;;3.20;1.10;;;19.60;57.20;;;;;;4962350;28;20063;-52
2022/10/03 11:55:47;;;;;;;2.20;0.90;;;19.70;56.20;;;;;;4934855;28;20134;-55
2022/10/03 11:58:52;;;;;;;4.68;1.67;;;19.80;57.20;;;;;;4966638;28;20039;-53
2022/10/03 12:01:28;;;;;;;1.77;1.00;;;19.90;56.10;;;;;;4969336;28;20117;-51
2022/10/03 12:04:02;;;;;;;1.75;0.80;;;19.90;56.60;;;;;;4968804;28;20039;-51
2022/10/03 12:10:01;;;;;;;4.00;1.77;;;20.10;56.60;;;;;;4973635;28;20126;-52
2022/10/03 12:12:42;;;;;;;5.85;1.30;;;20.20;55.10;;;;;;4970084;28;20078;-54
2022/10/03 12:15:37;;;;;;;4.70;2.13;;;20.30;55.50;;;;;;4969241;28;20043;-51
2022/10/03 12:18:30;;;;;;;2.88;0.90;;;20.30;55.30;;;;;;4960004;28;20043;-51
2022/10/03 12:21:10;;;;;;;2.97;0.95;;;20.30;54.90;;;;;;4970926;28;20053;-52
2022/10/03 12:24:01;;;;;;;4.43;1.50;;;20.40;55.20;;;;;;4966533;28;20035;-51
2022/10/03 12:26:42;;;;;;;2.63;1.65;;;20.30;55.00;;;;;;4969314;28;20051;-54
2022/10/03 12:29:12;;;;;;;3.40;1.08;;;20.40;55.70;;;;;;4964531;28;20558;-51
2022/10/03 12:31:47;;;;;;;2.70;1.08;;;20.50;56.10;;;;;;4971364;28;20043;-54
2022/10/03 12:34:32;;;;;;;4.43;1.00;;;20.50;56.30;;;;;;4971324;28;20035;-52
2022/10/03 12:37:40;;;;;;;3.42;1.38;;;20.60;55.30;;;;;;4968514;28;20482;-53
2022/10/03 12:40:20;;;;;;;3.70;1.10;;;20.70;54.90;;;;;;4949392;28;20078;-53
2022/10/03 12:42:47;;;;;;;4.80;1.15;;;20.80;54.40;;;;;;4972257;28;20035;-54
2022/10/03 12:45:35;;;;;;;3.10;0.80;;;20.90;55.00;;;;;;4973796;28;20043;-55
2022/10/03 12:48:21;;;;;;;2.05;1.20;;;20.90;53.80;;;;;;4974891;28;20038;-52
2022/10/03 12:51:12;;;;;;;4.78;1.58;;;20.90;54.50;;;;;;4971009;28;20509;-53
2022/10/03 12:53:50;;;;;;;1.30;0.90;;;21.00;53.70;;;;;;4974185;28;20043;-55
2022/10/03 12:56:35;;;;;;;5.20;1.55;;;21.10;54.10;;;;;;4972536;28;20508;-53
2022/10/03 12:59:14;;;;;;;2.67;1.33;;;21.10;53.50;;;;;;4972294;28;20034;-54
2022/10/03 13:02:05;;;;;;;3.53;1.13;;;21.20;53.30;;;;;;4955348;28;20043;-51
2022/10/03 13:04:40;;;;;;;3.88;1.33;;;21.30;53.60;;;;;;4959448;28;20125;-53
2022/10/03 13:07:18;;;;;;;2.92;1.10;;;21.30;53.40;;;;;;4971159;28;20415;-54
2022/10/03 13:10:00;;;;;;;3.08;1.10;;;21.30;53.90;;;;;;4967892;28;20042;-52
2022/10/03 13:12:42;;;;;;;4.38;1.10;;;21.30;53.60;;;;;;4972794;28;20054;-52
2022/10/03 13:15:46;;;;;;;2.92;1.05;;;21.40;53.20;;;;;;4964654;28;20047;-52
2022/10/03 13:18:41;;;;;;;2.13;1.58;;;21.40;53.50;;;;;;4970339;28;20529;-54
2022/10/03 13:21:16;;;;;;;2.28;1.02;;;21.50;52.90;;;;;;4968680;28;20073;-53
2022/10/03 13:24:24;;;;;;;2.42;1.25;;;21.50;53.40;;;;;;4969017;28;20049;-55
2022/10/03 13:27:02;;;;;;;4.28;1.20;;;21.60;53.10;;;;;;4960326;28;20422;-52
2022/10/03 13:29:52;;;;;;;1.38;0.77;;;21.80;53.80;;;;;;4964113;28;20055;-54
2022/10/03 13:32:27;;;;;;;2.47;0.98;;;22.00;52.50;;;;;;4962690;28;20057;-54
2022/10/03 13:38:25;;;;;;;4.10;1.00;;;22.70;52.00;;;;;;4965326;28;20417;-53
2022/10/03 13:41:16;;;;;;;0.80;0.70;;;23.30;53.00;;;;;;4950273;28;20069;-52
2022/10/03 13:43:50;;;;;;;4.22;0.98;;;24.30;50.80;;;;;;4965530;28;20563;-55
2022/10/03 13:46:39;;;;;;;4.25;0.95;;;25.30;49.70;;;;;;4965073;28;20039;-54
2022/10/03 13:49:22;;;;;;;0.75;0.50;;;26.40;48.70;;;;;;4969947;28;20039;-55
2022/10/03 13:52:16;;;;;;;1.90;0.75;;;27.60;47.60;;;;;;4960773;28;20119;-55
2022/10/03 13:55:11;;;;;;;3.75;1.00;;;28.80;45.90;;;;;;4966687;28;20053;-47
2022/10/03 13:57:58;;;;;;;2.67;0.85;;;30.10;44.90;;;;;;4962709;28;20508;-50
2022/10/03 14:00:31;;;;;;;2.13;0.95;;;31.20;42.40;;;;;;4966753;28;20053;-49
2022/10/03 14:03:04;;;;;;;2.92;1.17;;;32.10;41.40;;;;;;4964587;28;20063;-47
2022/10/03 14:06:17;;;;;;;4.07;0.70;;;32.70;40.00;;;;;;4962471;28;20054;-49
2022/10/03 14:09:11;;;;;;;2.72;1.40;;;33.30;40.30;;;;;;4957766;28;20061;-47
2022/10/03 14:11:49;;;;;;;3.08;0.77;;;33.80;37.80;;;;;;4963308;28;20074;-51
2022/10/03 14:14:27;;;;;;;2.92;0.90;;;34.00;35.70;;;;;;4968150;28;20070;-46
2022/10/03 14:17:23;;;;;;;1.95;0.85;;;34.10;34.60;;;;;;4970110;28;20062;-48
2022/10/03 14:20:37;;;;;;;4.00;0.75;;;34.30;33.90;;;;;;4965325;28;20126;-47
2022/10/03 14:23:39;;;;;;;2.35;0.80;;;34.50;35.60;;;;;;4942345;28;20529;-51
2022/10/03 14:26:21;;;;;;;2.97;0.77;;;34.70;35.40;;;;;;4968943;28;20397;-49
2022/10/03 14:29:09;;;;;;;4.95;2.60;;;34.80;33.40;;;;;;4966355;28;20047;-46
2022/10/03 14:31:54;;;;;;;3.17;1.23;;;34.80;33.20;;;;;;4964756;28;20050;-51
2022/10/03 14:34:40;;;;;;;2.60;1.13;;;34.50;32.90;;;;;;4972377;28;20057;-51
2022/10/03 14:37:30;;;;;;;2.40;0.85;;;34.00;32.50;;;;;;4969076;28;20065;-51
2022/10/03 14:40:30;;;;;;;2.15;1.10;;;33.40;32.80;;;;;;4970701;28;20113;-49
2022/10/03 14:43:04;;;;;;;2.10;0.65;;;32.70;32.90;;;;;;4966649;28;20058;-50
2022/10/03 14:45:38;;;;;;;4.00;0.93;;;31.90;33.30;;;;;;4966131;28;20053;-51
2022/10/03 14:48:17;;;;;;;3.45;1.45;;;31.20;33.90;;;;;;4969916;28;20050;-50
2022/10/03 14:50:48;;;;;;;3.45;1.20;;;30.60;34.60;;;;;;4968558;28;20038;-50
2022/10/03 14:53:19;;;;;;;1.70;0.82;;;29.90;35.60;;;;;;4985072;28;20077;-50